logo
Search for airport 
image banner adimage banner adimage banner ad
image banner ad

ZMAT - Gobi-Altai/Altai

Located in Gobi-Altai, Mongolia

ICAO - ZMAT, IATA - LTI

Data provided by Airmate  

General information

Coordinates: N46°22'37" E96°13'2"
Elevation is 7276 feet MSL.
 
View others Airports in Govi-Altay

Operational data

Special qualification required
Current time UTC:
Current local time:
Weather at : - ( 0 km )
METAR: PKWA 220920Z AUTO 07014KT 10SM SCT020 SCT110 28/25 A2988 RMK AO2 T02830246 TSNO
View NOTAMs / SUP AIP / TFR affecting this airport [VIEW]
Communications frequencies: [VIEW]

Runways:

RWY identifierQFULength (ft)Width (ft)SurfaceLDA (ft)
10G104°00UNK
28G284°00UNK
10104°951198UNK
28284°951198UNK

Airport contact information

Address: Gobi-Altai Mongolia

Satellite view of ZMAT